Time;durP1;ratioP1;P1;durP2;ratioP2;P2;SDS_P1;SDS_P2;PMS_P1;PMS_P2;Temp;Humidity;BMP_temperature;BMP_pressure;BME280_temperature;BME280_humidity;BME280_pressure;Samples;Min_cycle;Max_cycle;Signal;HPM_P1;HPM_P2
2021/01/30 00:00:44;;;;;;;74.88;47.83;;;153.90;2252.80;;;;;;4959599;28;20054;-83
2021/01/30 00:03:12;;;;;;;63.15;40.70;;;154.30;2252.80;;;;;;4967552;28;20296;-84
2021/01/30 00:05:38;;;;;;;150.80;94.25;;;154.40;2252.80;;;;;;4980936;28;20019;-84
2021/01/30 00:08:05;;;;;;;142.57;88.68;;;154.30;2252.80;;;;;;4958469;28;20114;-84
2021/01/30 00:10:33;;;;;;;121.78;78.22;;;154.20;2252.80;;;;;;4975432;28;20037;-83
2021/01/30 00:12:58;;;;;;;108.25;73.10;;;154.30;2252.80;;;;;;4959640;28;20081;-84
2021/01/30 00:15:26;;;;;;;115.35;75.63;;;154.20;2252.80;;;;;;4959713;28;20022;-79
2021/01/30 00:17:53;;;;;;;97.43;62.28;;;154.20;2252.80;;;;;;4977976;28;20106;-81
2021/01/30 00:20:25;;;;;;;86.32;56.22;;;154.30;2252.80;;;;;;4976290;28;20026;-79
2021/01/30 00:22:52;;;;;;;132.77;76.93;;;154.30;2252.80;;;;;;4960869;28;20459;-80
2021/01/30 00:25:22;;;;;;;128.32;72.28;;;154.30;2252.80;;;;;;4960901;28;20121;-84
2021/01/30 00:27:48;;;;;;;78.47;51.90;;;154.30;2252.80;;;;;;4959908;28;20037;-81
2021/01/30 00:30:18;;;;;;;25.45;16.23;;;154.30;2252.80;;;;;;4960867;28;20374;-81
2021/01/30 00:32:43;;;;;;;16.45;10.70;;;154.20;2252.80;;;;;;4960613;28;20026;-82
2021/01/30 00:35:10;;;;;;;13.60;8.85;;;154.10;2252.80;;;;;;4960109;28;20117;-82
2021/01/30 00:37:36;;;;;;;17.33;10.70;;;153.90;2252.80;;;;;;4978152;28;20155;-81
2021/01/30 00:40:03;;;;;;;10.23;6.03;;;153.80;2252.80;;;;;;4960447;28;20343;-83
2021/01/30 00:42:29;;;;;;;15.23;9.32;;;153.70;2252.80;;;;;;4960233;28;20030;-84
2021/01/30 00:44:55;;;;;;;13.73;8.65;;;153.80;2252.80;;;;;;4960360;28;20101;-83
2021/01/30 00:47:22;;;;;;;15.57;9.52;;;153.60;2252.80;;;;;;4960113;28;20070;-83
2021/01/30 00:49:49;;;;;;;17.63;8.85;;;153.60;2252.80;;;;;;4960722;28;20030;-83
2021/01/30 00:52:20;;;;;;;20.98;8.85;;;128.90;2252.80;;;;;;4960570;28;20018;-83
2021/01/30 00:54:49;;;;;;;26.65;11.63;;;128.80;2252.80;;;;;;4960547;28;20050;-91
2021/01/30 00:57:14;;;;;;;22.35;11.52;;;128.70;2252.80;;;;;;4961521;28;20027;-90
2021/01/30 00:59:41;;;;;;;32.47;16.75;;;128.60;2252.80;;;;;;4961189;28;20027;-88
2021/01/30 01:02:07;;;;;;;47.42;20.75;;;128.50;2252.80;;;;;;4960993;28;20023;-89
2021/01/30 01:04:33;;;;;;;44.38;19.55;;;128.60;2252.80;;;;;;4961100;28;20031;-89
2021/01/30 01:06:59;;;;;;;23.80;12.32;;;128.40;2252.80;;;;;;4959896;28;20487;-89
2021/01/30 01:09:25;;;;;;;29.65;15.07;;;128.10;2252.80;;;;;;4960740;28;20031;-89
2021/01/30 01:11:52;;;;;;;21.55;12.20;;;128.00;2252.80;;;;;;4961078;28;20081;-90
2021/01/30 01:14:20;;;;;;;37.58;17.90;;;128.00;2252.80;;;;;;4960963;28;20026;-89
2021/01/30 01:16:46;;;;;;;39.58;19.13;;;128.10;2252.80;;;;;;4960906;28;20019;-90
2021/01/30 01:19:12;;;;;;;39.88;18.70;;;128.10;2252.80;;;;;;4961061;28;20033;-89
2021/01/30 01:21:38;;;;;;;37.78;16.13;;;128.10;2252.80;;;;;;4960889;28;20115;-89
2021/01/30 01:24:04;;;;;;;11.35;6.43;;;128.00;2252.80;;;;;;4960843;28;20050;-89
2021/01/30 01:26:30;;;;;;;19.20;11.30;;;128.00;2252.80;;;;;;4960733;28;20051;-90
2021/01/30 01:28:55;;;;;;;17.48;12.05;;;128.00;2252.80;;;;;;4960571;28;20435;-89
2021/01/30 01:31:21;;;;;;;22.67;12.25;;;103.30;2227.20;;;;;;4960478;28;20026;-90
2021/01/30 01:33:48;;;;;;;20.73;11.65;;;103.20;2227.20;;;;;;4977930;28;20023;-89
2021/01/30 01:36:15;;;;;;;19.80;10.52;;;103.20;2227.20;;;;;;4960471;28;20030;-90
2021/01/30 01:38:42;;;;;;;22.98;11.52;;;103.10;2227.20;;;;;;4960552;28;20126;-90
2021/01/30 01:41:08;;;;;;;10.65;5.10;;;103.00;2227.20;;;;;;4961664;28;20078;-89
2021/01/30 01:43:35;;;;;;;16.38;8.13;;;102.90;2227.20;;;;;;4978632;28;20085;-90
2021/01/30 01:46:20;;;;;;;19.75;10.52;;;102.90;2227.20;;;;;;4983060;28;20061;-89
2021/01/30 01:49:12;;;;;;;28.25;15.40;;;102.90;2227.20;;;;;;4978752;28;20027;-89
2021/01/30 01:51:46;;;;;;;54.80;29.00;;;102.70;2227.20;;;;;;4978597;28;20030;-90
2021/01/30 01:54:25;;;;;;;61.30;33.78;;;102.60;2227.20;;;;;;4979685;28;20053;-90
2021/01/30 01:56:58;;;;;;;45.13;29.95;;;102.50;2227.20;;;;;;4997017;28;20022;-89
2021/01/30 01:59:25;;;;;;;42.53;24.40;;;77.70;2227.20;;;;;;4979356;28;20032;-90
2021/01/30 02:01:53;;;;;;;37.65;26.13;;;77.60;2227.20;;;;;;4980205;28;20077;-89
2021/01/30 02:04:21;;;;;;;49.30;29.05;;;77.50;2227.20;;;;;;4979352;28;20537;-90
2021/01/30 02:06:48;;;;;;;52.95;32.60;;;77.50;2227.20;;;;;;4979914;28;20050;-89
2021/01/30 02:09:22;;;;;;;64.32;40.30;;;77.50;2227.20;;;;;;4979694;28;20058;-89
2021/01/30 02:12:04;;;;;;;53.60;31.20;;;77.50;2227.20;;;;;;4978969;28;20185;-90
2021/01/30 02:14:36;;;;;;;66.70;37.40;;;77.50;2227.20;;;;;;4979172;28;20114;-89
2021/01/30 02:17:10;;;;;;;86.65;46.08;;;77.40;2227.20;;;;;;4977169;28;20024;-90
2021/01/30 02:20:13;;;;;;;104.35;59.63;;;77.40;2227.20;;;;;;4978710;28;20045;-89
2021/01/30 02:22:58;;;;;;;52.78;31.55;;;77.30;2227.20;;;;;;4978944;28;20023;-90
2021/01/30 02:25:42;;;;;;;48.05;28.40;;;77.10;2227.20;;;;;;4978970;28;20051;-89
2021/01/30 02:28:14;;;;;;;52.70;33.55;;;77.10;2227.20;;;;;;4979359;28;20060;-88
2021/01/30 02:31:08;;;;;;;54.40;31.20;;;77.10;2227.20;;;;;;4979658;28;20026;-91
2021/01/30 02:33:47;;;;;;;56.10;34.53;;;77.20;2227.20;;;;;;4978531;28;20381;-88
2021/01/30 02:36:53;;;;;;;59.97;36.63;;;77.20;2227.20;;;;;;4979004;28;20133;-89
2021/01/30 02:39:42;;;;;;;75.53;44.75;;;77.10;2227.20;;;;;;4978384;28;20033;-88
2021/01/30 02:42:26;;;;;;;69.93;42.22;;;77.10;2227.20;;;;;;4979243;28;20049;-89
2021/01/30 02:45:18;;;;;;;47.38;31.15;;;77.10;2227.20;;;;;;4978773;28;20082;-89
2021/01/30 02:47:50;;;;;;;48.42;32.35;;;77.10;2227.20;;;;;;4978706;28;20030;-89
2021/01/30 02:50:28;;;;;;;45.70;28.60;;;77.10;2227.20;;;;;;4978948;28;20127;-89
2021/01/30 02:52:58;;;;;;;46.90;28.52;;;77.20;2227.20;;;;;;4979181;28;20022;-89
2021/01/30 02:55:25;;;;;;;69.32;40.22;;;77.30;2227.20;;;;;;4978354;28;20044;-88
2021/01/30 02:57:53;;;;;;;65.40;38.97;;;77.30;2227.20;;;;;;4979114;28;20053;-88
2021/01/30 03:00:22;;;;;;;54.35;32.65;;;77.30;2227.20;;;;;;4978563;28;20462;-89
2021/01/30 03:02:48;;;;;;;46.75;29.08;;;77.30;2227.20;;;;;;4979064;28;20022;-89
2021/01/30 03:05:15;;;;;;;42.17;28.80;;;77.30;2227.20;;;;;;4978631;28;20120;-89
2021/01/30 03:08:19;;;;;;;34.72;22.63;;;77.20;2227.20;;;;;;4978128;28;20033;-90
2021/01/30 03:10:52;;;;;;;;;;;77.40;2227.20;;;;;;4978907;28;20030;-90
2021/01/30 03:13:18;;;;;;;;;;;77.40;2227.20;;;;;;4978777;28;19909;-89
2021/01/30 03:16:13;;;;;;;39.53;23.17;;;77.40;2227.20;;;;;;4995051;28;19902;-90
2021/01/30 03:18:49;;;;;;;30.83;19.88;;;77.50;2227.20;;;;;;4978159;28;20080;-89
2021/01/30 03:21:16;;;;;;;35.15;23.77;;;77.50;2227.20;;;;;;4978607;28;20439;-90
2021/01/30 03:23:43;;;;;;;33.22;23.38;;;77.40;2227.20;;;;;;4978187;28;20042;-90
2021/01/30 03:26:16;;;;;;;39.72;27.50;;;51.80;2227.20;;;;;;4978142;28;20032;-90
2021/01/30 03:28:41;;;;;;;;;;;77.20;2227.20;;;;;;4978545;28;20096;-89
2021/01/30 03:31:08;;;;;;;27.55;19.23;;;77.20;2227.20;;;;;;4998779;28;20326;-89
2021/01/30 03:33:34;;;;;;;22.50;16.58;;;77.20;2227.20;;;;;;4982062;28;20061;-90
2021/01/30 03:36:00;;;;;;;22.23;14.38;;;77.20;2227.20;;;;;;4982233;28;20023;-89
2021/01/30 03:38:25;;;;;;;25.20;17.20;;;77.30;2227.20;;;;;;4982090;28;20084;-90
2021/01/30 03:40:51;;;;;;;32.38;24.40;;;77.20;2227.20;;;;;;4999396;28;20054;-91
2021/01/30 03:43:17;;;;;;;52.35;35.90;;;77.10;2227.20;;;;;;4998926;28;20029;-89
2021/01/30 03:45:43;;;;;;;43.65;29.45;;;77.00;2227.20;;;;;;4999239;28;20019;-90
2021/01/30 03:48:09;;;;;;;42.67;28.50;;;77.00;2227.20;;;;;;4981908;28;20061;-90
2021/01/30 03:50:35;;;;;;;46.13;29.35;;;77.10;2227.20;;;;;;4981849;28;20374;-90
2021/01/30 03:53:06;;;;;;;38.72;26.92;;;77.30;2227.20;;;;;;4982114;28;20023;-90
2021/01/30 03:55:32;;;;;;;55.63;39.40;;;77.30;2227.20;;;;;;4982211;28;20505;-90
2021/01/30 03:57:57;;;;;;;27.95;17.50;;;77.40;2227.20;;;;;;4998736;28;20030;-90
2021/01/30 04:00:24;;;;;;;30.67;21.13;;;77.40;2227.20;;;;;;4982101;28;20126;-90
2021/01/30 04:02:50;;;;;;;31.92;22.17;;;77.20;2227.20;;;;;;4981715;28;20057;-90
2021/01/30 04:05:19;;;;;;;37.20;24.95;;;77.40;2227.20;;;;;;4981335;28;20027;-89
2021/01/30 04:07:46;;;;;;;49.80;30.73;;;77.40;2227.20;;;;;;4981536;28;20413;-90
2021/01/30 04:10:16;;;;;;;64.53;36.55;;;77.40;2227.20;;;;;;4981231;28;20455;-90
2021/01/30 04:12:42;;;;;;;78.85;43.88;;;77.40;2227.20;;;;;;4981729;28;20110;-90
2021/01/30 04:15:12;;;;;;;74.05;43.83;;;77.50;2227.20;;;;;;4998999;28;20335;-90
2021/01/30 04:17:38;;;;;;;68.03;42.25;;;77.50;2227.20;;;;;;4981142;28;20034;-89
2021/01/30 04:20:04;;;;;;;72.47;44.75;;;77.40;2227.20;;;;;;4981774;28;20461;-90
2021/01/30 04:22:30;;;;;;;60.55;39.30;;;77.30;2227.20;;;;;;4981491;28;20364;-89
2021/01/30 04:24:56;;;;;;;54.47;33.80;;;77.40;2227.20;;;;;;4981039;28;20026;-89
2021/01/30 04:27:21;;;;;;;43.65;26.67;;;77.50;2227.20;;;;;;4998477;28;20446;-89
2021/01/30 04:29:47;;;;;;;29.90;19.27;;;77.50;2227.20;;;;;;4981391;28;20037;-90
2021/01/30 04:32:13;;;;;;;39.33;25.05;;;77.50;2227.20;;;;;;4980868;28;20018;-90
2021/01/30 04:34:40;;;;;;;45.10;27.23;;;77.50;2227.20;;;;;;4980984;28;20029;-88
2021/01/30 04:37:06;;;;;;;42.38;25.75;;;77.20;2227.20;;;;;;4980944;28;20027;-88
2021/01/30 04:39:32;;;;;;;43.70;27.60;;;77.40;2227.20;;;;;;4998161;28;20030;-89
2021/01/30 04:42:09;;;;;;;50.70;31.15;;;77.40;2227.20;;;;;;4979405;28;20046;-90
2021/01/30 04:45:01;;;;;;;47.58;29.83;;;77.40;2227.20;;;;;;4961539;28;20025;-89
2021/01/30 04:47:51;;;;;;;44.47;26.95;;;77.50;2227.20;;;;;;4960083;28;20073;-89
2021/01/30 04:50:27;;;;;;;44.13;29.63;;;77.40;2227.20;;;;;;4961501;28;20127;-89
2021/01/30 04:53:16;;;;;;;46.28;27.95;;;77.40;2227.20;;;;;;4961625;28;20082;-89
2021/01/30 04:56:08;;;;;;;39.70;25.35;;;77.50;2227.20;;;;;;4961481;28;20025;-90
2021/01/30 04:58:51;;;;;;;39.35;25.20;;;77.50;2227.20;;;;;;4977714;28;20077;-90
2021/01/30 05:01:39;;;;;;;50.65;31.27;;;77.30;2227.20;;;;;;4961278;28;20026;-89
2021/01/30 05:04:31;;;;;;;48.35;29.27;;;77.30;2227.20;;;;;;4964255;28;20023;-89
2021/01/30 05:07:39;;;;;;;35.75;23.38;;;77.30;2227.20;;;;;;4981216;28;20038;-88
2021/01/30 05:10:24;;;;;;;48.28;30.52;;;77.40;2227.20;;;;;;4961040;28;20027;-87
2021/01/30 05:13:06;;;;;;;50.10;30.08;;;77.30;2227.20;;;;;;4961653;28;20069;-89
2021/01/30 05:15:48;;;;;;;44.60;29.02;;;77.30;2227.20;;;;;;4978966;28;20038;-90
2021/01/30 05:18:30;;;;;;;40.53;24.55;;;77.30;2227.20;;;;;;4996505;28;20022;-90
2021/01/30 05:21:08;;;;;;;41.30;26.75;;;77.30;2227.20;;;;;;4979036;28;20022;-88
2021/01/30 05:23:35;;;;;;;52.05;36.05;;;77.40;2227.20;;;;;;4980785;28;20057;-89
2021/01/30 05:26:25;;;;;;;52.78;33.13;;;77.40;2227.20;;;;;;4980314;28;20023;-89
2021/01/30 05:29:09;;;;;;;41.30;24.55;;;77.40;2227.20;;;;;;4979786;28;20034;-88
2021/01/30 05:31:54;;;;;;;38.33;23.20;;;77.30;2227.20;;;;;;4980858;28;20501;-87
2021/01/30 05:34:35;;;;;;;46.97;30.23;;;77.40;2227.20;;;;;;4979887;28;20031;-88
2021/01/30 05:37:10;;;;;;;50.58;30.90;;;77.50;2227.20;;;;;;4980017;28;20049;-88
2021/01/30 05:39:44;;;;;;;49.97;31.45;;;77.40;2227.20;;;;;;4980053;28;20054;-88
2021/01/30 05:42:25;;;;;;;49.15;30.48;;;77.40;2227.20;;;;;;4979440;28;20046;-89
2021/01/30 05:45:30;;;;;;;41.03;29.42;;;77.30;2227.20;;;;;;4980533;28;20068;-88
2021/01/30 05:47:56;;;;;;;49.60;34.05;;;77.30;2227.20;;;;;;4980100;28;20446;-88
2021/01/30 05:50:30;;;;;;;50.33;31.58;;;77.40;2227.20;;;;;;4993792;28;20109;-89
2021/01/30 05:52:57;;;;;;;85.78;43.40;;;77.30;2227.20;;;;;;4996529;28;20022;-88
2021/01/30 05:55:24;;;;;;;77.55;44.05;;;77.40;2227.20;;;;;;4978542;28;20026;-89
2021/01/30 05:57:50;;;;;;;86.70;54.20;;;77.40;2227.20;;;;;;4979476;28;20037;-89
2021/01/30 06:00:19;;;;;;;57.67;35.45;;;77.20;2227.20;;;;;;4979344;28;20022;-89
2021/01/30 06:03:05;;;;;;;90.30;58.60;;;77.30;2227.20;;;;;;4996394;28;20022;-90
2021/01/30 06:05:34;;;;;;;59.55;35.33;;;77.30;2227.20;;;;;;4979900;28;20125;-90
2021/01/30 06:08:16;;;;;;;55.58;35.53;;;77.40;2227.20;;;;;;4979198;28;20022;-89
2021/01/30 06:10:43;;;;;;;175.57;78.43;;;77.40;2227.20;;;;;;4979048;28;20030;-88
2021/01/30 06:13:24;;;;;;;251.88;110.70;;;77.40;2227.20;;;;;;4977538;28;20029;-89
2021/01/30 06:15:54;;;;;;;76.45;48.65;;;77.40;2227.20;;;;;;4979645;28;20018;-89
2021/01/30 06:18:34;;;;;;;102.43;57.00;;;77.50;2227.20;;;;;;4978405;28;20461;-90
2021/01/30 06:21:07;;;;;;;97.35;55.88;;;77.40;2227.20;;;;;;4996089;28;20028;-88
2021/01/30 06:23:34;;;;;;;81.65;51.88;;;77.30;2227.20;;;;;;4978873;28;20050;-89
2021/01/30 06:26:20;;;;;;;80.13;52.20;;;77.40;2227.20;;;;;;4978852;28;20029;-89
2021/01/30 06:29:04;;;;;;;83.10;51.13;;;77.70;2227.20;;;;;;4978759;28;20026;-88
2021/01/30 06:31:41;;;;;;;100.32;62.25;;;77.60;2227.20;;;;;;4978689;28;20129;-89
2021/01/30 06:34:30;;;;;;;92.63;56.60;;;77.60;2227.20;;;;;;4979749;28;20026;-88
2021/01/30 06:36:58;;;;;;;92.47;59.90;;;77.60;2227.20;;;;;;4978994;28;20042;-89
2021/01/30 06:39:34;;;;;;;91.90;62.05;;;77.60;2227.20;;;;;;4978610;28;20022;-90
2021/01/30 06:42:10;;;;;;;140.52;77.82;;;77.60;2227.20;;;;;;4979116;28;20042;-89
2021/01/30 06:44:37;;;;;;;101.10;72.15;;;77.50;2227.20;;;;;;4978458;28;20114;-89
2021/01/30 06:47:12;;;;;;;94.53;66.35;;;102.90;2227.20;;;;;;4976593;28;20027;-89
2021/01/30 06:49:45;;;;;;;117.60;83.72;;;77.60;2227.20;;;;;;4978457;28;20027;-90
2021/01/30 06:52:25;;;;;;;114.05;77.68;;;77.70;2227.20;;;;;;4978249;28;20030;-88
2021/01/30 06:55:09;;;;;;;255.27;158.82;;;77.60;2227.20;;;;;;4978593;28;20026;-88
2021/01/30 06:58:02;;;;;;;89.32;59.08;;;77.60;2227.20;;;;;;4978364;28;20021;-89
2021/01/30 07:00:33;;;;;;;;;;;77.60;2227.20;;;;;;4978711;28;20030;-89
2021/01/30 07:03:46;;;;;;;87.00;51.30;;;77.70;2227.20;;;;;;4978297;28;19992;-89
2021/01/30 07:06:20;;;;;;;79.97;48.63;;;77.70;2227.20;;;;;;4909365;28;20044;-88
2021/01/30 07:08:58;;;;;;;82.53;51.97;;;102.40;2227.20;;;;;;4995655;28;20061;-88
2021/01/30 07:11:35;;;;;;;79.32;51.70;;;102.40;2227.20;;;;;;4995393;28;20066;-88
2021/01/30 07:14:36;;;;;;;63.60;42.15;;;102.40;2227.20;;;;;;4976122;28;20033;-89
2021/01/30 07:17:11;;;;;;;62.03;42.67;;;102.50;2227.20;;;;;;4978877;28;20085;-88
2021/01/30 07:20:07;;;;;;;53.20;34.20;;;102.50;2227.20;;;;;;4977412;28;20018;-88
2021/01/30 07:22:52;;;;;;;51.83;34.42;;;102.40;2227.20;;;;;;4977965;28;20022;-88
2021/01/30 07:25:31;;;;;;;72.80;48.10;;;102.50;2227.20;;;;;;4978669;28;20446;-88
2021/01/30 07:28:06;;;;;;;72.15;47.05;;;102.60;2227.20;;;;;;4977928;28;20030;-89
2021/01/30 07:30:35;;;;;;;82.25;51.28;;;102.60;2227.20;;;;;;4995442;28;20022;-88
2021/01/30 07:33:10;;;;;;;61.90;42.40;;;102.70;2227.20;;;;;;4978035;28;20023;-88
2021/01/30 07:35:53;;;;;;;64.05;43.70;;;103.00;2227.20;;;;;;4995271;28;20030;-88
2021/01/30 07:38:20;;;;;;;;;;;102.80;2227.20;;;;;;4978216;28;20045;-88
2021/01/30 07:40:54;;;;;;;61.20;42.30;;;102.80;2227.20;;;;;;4977586;28;19914;-89
2021/01/30 07:43:25;;;;;;;58.33;48.58;;;102.70;2227.20;;;;;;4977867;28;20027;-89
2021/01/30 07:46:17;;;;;;;43.17;31.52;;;102.80;2227.20;;;;;;4978512;28;20054;-89
2021/01/30 07:48:58;;;;;;;39.92;29.40;;;102.80;2227.20;;;;;;4977836;28;20033;-89
2021/01/30 07:51:43;;;;;;;46.33;32.53;;;102.80;2227.20;;;;;;4978650;28;20398;-89
2021/01/30 07:54:09;;;;;;;71.28;50.13;;;102.90;2227.20;;;;;;4978008;28;20331;-88
2021/01/30 07:57:04;;;;;;;73.72;54.38;;;102.90;2227.20;;;;;;4978539;28;20406;-89
2021/01/30 07:59:38;;;;;;;53.80;38.47;;;102.90;2227.20;;;;;;4964923;28;20030;-88
2021/01/30 08:02:09;;;;;;;55.78;41.40;;;103.00;2227.20;;;;;;4977776;28;20023;-89
2021/01/30 08:04:53;;;;;;;44.50;39.15;;;102.80;2227.20;;;;;;4978096;28;20061;-88
2021/01/30 08:07:34;;;;;;;79.57;57.53;;;102.80;2227.20;;;;;;4978749;28;20022;-89
2021/01/30 08:10:35;;;;;;;64.45;48.25;;;102.60;2227.20;;;;;;4978582;28;20034;-89
2021/01/30 08:13:27;;;;;;;48.05;36.25;;;102.60;2227.20;;;;;;4926860;28;20457;-89
2021/01/30 08:16:04;;;;;;;47.57;30.17;;;102.80;2227.20;;;;;;4979404;28;20030;-89
2021/01/30 08:18:38;;;;;;;58.95;41.58;;;102.80;2227.20;;;;;;4980493;28;20023;-88
2021/01/30 08:21:22;;;;;;;71.65;49.42;;;102.90;2227.20;;;;;;4981853;28;20049;-87
2021/01/30 08:23:53;;;;;;;73.00;50.88;;;103.00;2227.20;;;;;;4981984;28;20029;-88
2021/01/30 08:26:28;;;;;;;66.15;43.28;;;103.00;2227.20;;;;;;5002951;28;20049;-89
2021/01/30 08:29:09;;;;;;;72.90;50.88;;;103.10;2227.20;;;;;;4988220;28;20030;-87
2021/01/30 08:31:43;;;;;;;67.63;46.08;;;103.10;2227.20;;;;;;4983319;28;20537;-89
2021/01/30 08:34:27;;;;;;;65.60;48.53;;;103.20;2227.20;;;;;;4981285;28;20133;-88
2021/01/30 08:36:57;;;;;;;58.13;40.88;;;103.20;2227.20;;;;;;4981062;28;20065;-88
2021/01/30 08:39:30;;;;;;;65.35;46.95;;;103.30;2227.20;;;;;;4980774;28;20035;-88
2021/01/30 08:42:07;;;;;;;66.00;50.00;;;103.30;2227.20;;;;;;4997260;28;20467;-88
2021/01/30 08:45:10;;;;;;;77.72;55.72;;;128.00;2252.80;;;;;;4961167;28;20023;-87
2021/01/30 08:47:56;;;;;;;;;;;128.10;2252.80;;;;;;4978084;28;20099;-88
2021/01/30 08:50:35;;;;;;;58.08;41.55;;;128.00;2252.80;;;;;;4961166;28;19910;-87
2021/01/30 08:53:27;;;;;;;69.10;51.60;;;128.10;2252.80;;;;;;4961901;28;20033;-88
2021/01/30 08:55:54;;;;;;;71.68;52.20;;;128.20;2252.80;;;;;;4977671;28;20022;-88
2021/01/30 08:58:32;;;;;;;83.25;61.88;;;128.20;2252.80;;;;;;4961232;28;20023;-88
2021/01/30 09:01:21;;;;;;;79.15;57.55;;;128.30;2252.80;;;;;;4977587;28;20019;-88
2021/01/30 09:03:51;;;;;;;82.13;59.70;;;128.30;2252.80;;;;;;4949576;28;20030;-87
2021/01/30 09:06:38;;;;;;;64.85;45.95;;;128.30;2252.80;;;;;;4960983;28;20049;-88
2021/01/30 09:09:12;;;;;;;82.78;59.00;;;128.40;2252.80;;;;;;4976986;28;20023;-88
2021/01/30 09:11:45;;;;;;;57.92;43.42;;;128.60;2252.80;;;;;;4977135;28;20038;-87
2021/01/30 09:14:14;;;;;;;68.85;49.08;;;128.50;2252.80;;;;;;4968443;28;20470;-87
2021/01/30 09:17:05;;;;;;;63.08;48.60;;;128.50;2252.80;;;;;;4982092;28;20015;-88
2021/01/30 09:19:54;;;;;;;73.50;54.00;;;128.70;2252.80;;;;;;4976374;28;20033;-88
2021/01/30 09:22:29;;;;;;;54.53;40.67;;;128.80;2252.80;;;;;;4976517;28;20027;-87
2021/01/30 09:25:16;;;;;;;72.15;50.83;;;128.90;2252.80;;;;;;4977818;28;20027;-82
2021/01/30 09:28:15;;;;;;;77.30;52.28;;;153.60;2252.80;;;;;;4975949;28;20030;-88
2021/01/30 09:30:57;;;;;;;79.03;55.58;;;153.60;2252.80;;;;;;4944700;28;20038;-88
2021/01/30 09:33:30;;;;;;;79.43;53.63;;;153.70;2252.80;;;;;;4976390;28;20022;-90
2021/01/30 09:36:17;;;;;;;54.28;40.60;;;153.80;2252.80;;;;;;4976981;28;20082;-89
2021/01/30 09:38:50;;;;;;;30.77;21.90;;;153.70;2252.80;;;;;;4977814;28;20109;-89
2021/01/30 09:41:16;;;;;;;;;;;128.80;2252.80;;;;;;4977549;28;20075;-89
2021/01/30 09:43:42;;;;;;;42.05;32.53;;;128.90;2252.80;;;;;;4976547;28;19902;-90
2021/01/30 09:46:13;;;;;;;44.47;32.50;;;153.60;2252.80;;;;;;4976360;28;20019;-89
2021/01/30 09:48:41;;;;;;;46.08;31.55;;;153.60;2252.80;;;;;;4976380;28;20030;-89
2021/01/30 09:51:08;;;;;;;24.05;15.50;;;153.80;2252.80;;;;;;4976375;28;20526;-89
2021/01/30 09:53:52;;;;;;;28.65;22.75;;;153.80;2252.80;;;;;;4976576;28;20022;-90
2021/01/30 09:56:19;;;;;;;;;;;153.80;2252.80;;;;;;4976434;28;20046;-88
2021/01/30 09:58:51;;;;;;;30.10;23.65;;;153.80;2252.80;;;;;;4976053;28;19952;-89
2021/01/30 10:01:22;;;;;;;43.53;31.60;;;153.90;2252.80;;;;;;4970602;28;20477;-83
2021/01/30 10:03:48;;;;;;;29.83;23.88;;;154.00;2252.80;;;;;;4978729;28;20482;-83
2021/01/30 10:06:26;;;;;;;34.08;24.33;;;154.00;2252.80;;;;;;4972432;28;20053;-84
2021/01/30 10:08:52;;;;;;;30.85;22.92;;;154.10;2252.80;;;;;;4975613;28;20030;-84
2021/01/30 10:11:20;;;;;;;29.02;18.42;;;154.20;2252.80;;;;;;4976157;28;20077;-85
2021/01/30 10:13:58;;;;;;;26.17;22.75;;;154.20;2252.80;;;;;;4977438;28;20524;-86
2021/01/30 10:16:26;;;;;;;60.00;38.97;;;154.10;2252.80;;;;;;4975692;28;20339;-85
2021/01/30 10:19:08;;;;;;;55.50;35.17;;;154.30;2252.80;;;;;;4971796;28;20014;-86
2021/01/30 10:21:38;;;;;;;36.25;26.02;;;154.40;2252.80;;;;;;4966993;28;20023;-85
2021/01/30 10:24:18;;;;;;;32.42;27.30;;;154.40;2252.80;;;;;;4966882;28;20392;-84
2021/01/30 10:26:45;;;;;;;21.83;17.67;;;154.30;2252.80;;;;;;4962274;28;20019;-84
2021/01/30 10:29:13;;;;;;;22.45;17.50;;;154.30;2252.80;;;;;;4959613;28;20035;-85
2021/01/30 10:31:44;;;;;;;32.05;24.17;;;154.40;2252.80;;;;;;4981776;28;20018;-87
2021/01/30 10:34:32;;;;;;;42.70;30.92;;;154.50;2252.80;;;;;;4976861;28;20042;-85
2021/01/30 10:37:01;;;;;;;27.00;21.67;;;179.20;2252.80;;;;;;4976972;28;20026;-90
2021/01/30 10:39:30;;;;;;;36.65;27.05;;;179.20;2252.80;;;;;;4977883;28;20026;-87
2021/01/30 10:42:01;;;;;;;74.07;46.17;;;179.40;2252.80;;;;;;4978157;28;20042;-87
2021/01/30 10:44:30;;;;;;;30.52;22.73;;;179.50;2252.80;;;;;;4962145;28;20483;-87
2021/01/30 10:47:02;;;;;;;25.52;18.13;;;179.60;2252.80;;;;;;4978122;28;20080;-86
2021/01/30 10:49:31;;;;;;;48.78;37.25;;;179.50;2252.80;;;;;;4977920;28;20034;-84
2021/01/30 10:52:09;;;;;;;47.10;35.25;;;179.60;2252.80;;;;;;4994912;28;20023;-84
2021/01/30 10:54:36;;;;;;;83.47;60.88;;;179.70;2252.80;;;;;;4977751;28;20018;-87
2021/01/30 10:57:16;;;;;;;49.40;36.90;;;179.80;2252.80;;;;;;4977666;28;20092;-84
2021/01/30 10:59:56;;;;;;;50.42;31.25;;;179.80;2252.80;;;;;;4978392;28;20033;-86
2021/01/30 11:02:55;;;;;;;55.45;37.50;;;179.80;2252.80;;;;;;4977810;28;20023;-85
2021/01/30 11:05:20;;;;;;;32.63;24.25;;;179.90;2252.80;;;;;;4925603;28;20092;-84
2021/01/30 11:07:49;;;;;;;40.25;28.65;;;179.90;2252.80;;;;;;4976791;28;20019;-86
2021/01/30 11:10:23;;;;;;;47.75;35.28;;;180.00;2252.80;;;;;;4995158;28;20121;-84
2021/01/30 11:12:49;;;;;;;61.47;42.67;;;180.00;2252.80;;;;;;4977773;28;20030;-84
2021/01/30 11:15:22;;;;;;;43.05;32.95;;;204.80;2252.80;;;;;;4977391;28;20033;-84
2021/01/30 11:17:48;;;;;;;26.05;18.83;;;205.00;2252.80;;;;;;4977824;28;20026;-89
2021/01/30 11:20:37;;;;;;;39.33;29.73;;;205.10;2252.80;;;;;;4977380;28;20026;-86
2021/01/30 11:23:05;;;;;;;31.55;22.52;;;205.10;2252.80;;;;;;4977225;28;20030;-84
2021/01/30 11:25:37;;;;;;;23.48;18.10;;;205.20;2252.80;;;;;;4995117;28;20023;-85
2021/01/30 11:28:03;;;;;;;30.48;22.50;;;205.40;2252.80;;;;;;4977626;28;20030;-86
2021/01/30 11:30:29;;;;;;;27.60;18.50;;;205.30;2252.80;;;;;;4977615;28;20031;-84
2021/01/30 11:33:31;;;;;;;33.30;24.75;;;205.30;2252.80;;;;;;4977868;28;20026;-85
2021/01/30 11:35:57;;;;;;;46.85;33.80;;;205.20;2252.80;;;;;;4961318;28;20041;-84
2021/01/30 11:38:27;;;;;;;48.50;36.78;;;205.20;2252.80;;;;;;4976927;28;20019;-83
2021/01/30 11:40:56;;;;;;;38.30;27.67;;;205.20;2252.80;;;;;;4994150;28;20062;-82
2021/01/30 11:43:24;;;;;;;47.95;34.70;;;205.20;2252.80;;;;;;4965033;28;20038;-82
2021/01/30 11:45:50;;;;;;;47.22;35.20;;;205.20;2252.80;;;;;;4958021;28;20023;-83
2021/01/30 11:48:18;;;;;;;81.75;55.75;;;205.20;2252.80;;;;;;4957166;28;20034;-82
2021/01/30 11:50:45;;;;;;;39.53;29.10;;;205.20;2252.80;;;;;;4958457;28;20103;-81
2021/01/30 11:53:17;;;;;;;43.35;30.17;;;205.10;2252.80;;;;;;4978490;28;20022;-80
2021/01/30 11:55:44;;;;;;;;;;;205.30;2252.80;;;;;;4962048;28;20018;-78
2021/01/30 11:58:10;;;;;;;56.72;37.72;;;205.40;2252.80;;;;;;4961392;28;20400;-86
2021/01/30 12:00:36;;;;;;;34.38;25.55;;;205.30;2252.80;;;;;;4961809;28;20023;-87
2021/01/30 12:03:04;;;;;;;42.60;35.40;;;205.30;2252.80;;;;;;4961905;28;20029;-85
2021/01/30 12:05:30;;;;;;;36.05;29.02;;;205.70;2252.80;;;;;;4962239;28;20023;-85
2021/01/30 12:07:57;;;;;;;37.35;29.55;;;205.70;2252.80;;;;;;4961213;28;20058;-84
2021/01/30 12:10:24;;;;;;;27.83;23.23;;;230.70;2252.80;;;;;;4961383;28;20026;-84
2021/01/30 12:12:49;;;;;;;34.00;26.30;;;230.60;2252.80;;;;;;4961803;28;20023;-84
2021/01/30 12:15:15;;;;;;;45.70;35.95;;;230.70;2252.80;;;;;;4962820;28;20482;-84
2021/01/30 12:17:47;;;;;;;40.30;30.38;;;231.00;2252.80;;;;;;4981200;28;20056;-84
2021/01/30 12:20:27;;;;;;;36.65;27.55;;;231.20;2252.80;;;;;;4979954;28;20239;-84
2021/01/30 12:22:55;;;;;;;45.92;31.27;;;256.50;2252.80;;;;;;4980662;28;20026;-84
2021/01/30 12:25:21;;;;;;;57.60;45.65;;;256.40;2252.80;;;;;;4980284;28;20168;-84
2021/01/30 12:27:53;;;;;;;45.63;36.33;;;256.60;2252.80;;;;;;4980342;28;20072;-83
2021/01/30 12:30:22;;;;;;;59.20;47.70;;;281.70;2278.40;;;;;;4980419;28;20034;-84
2021/01/30 12:32:49;;;;;;;31.88;24.90;;;281.70;2278.40;;;;;;4980109;28;20027;-83
2021/01/30 12:35:15;;;;;;;36.50;26.88;;;307.30;2304.00;;;;;;4981137;28;20019;-82
2021/01/30 12:37:41;;;;;;;28.73;22.20;;;281.70;2278.40;;;;;;4997438;28;20104;-82
2021/01/30 12:40:09;;;;;;;30.70;24.83;;;256.90;2252.80;;;;;;4980586;28;20435;-82